This is the latest recevied weather packets stored in our database for station/object NK7E-2. If no packets are shown the sender has not sent any weather packets the latest 10 day(s).
| Time | Temp. | Humidity | Pressure | Rain* | Wind** | Luminosity | Snow |
|---|---|---|---|---|---|---|---|
| 1788394816 | 31.11° C | 41% | 1026.7 hPa | 0 mm | - | - | - |
| 1788394216 | 31.67° C | 40% | 1026.7 hPa | 0 mm | - | - | - |
| 1788393616 | 32.22° C | 35% | 1026.7 hPa | 0 mm | - | - | - |
| 1788393016 | 31.11° C | 40% | 1026.5 hPa | 0 mm | - | - | - |
| 1788392416 | 30.56° C | 44% | 1026.3 hPa | 0 mm | - | - | - |
| 1788391816 | 30° C | 44% | 1026.3 hPa | 0 mm | - | - | - |
| 1788391216 | 30° C | 44% | 1026.4 hPa | 0 mm | - | - | - |
| 1788390616 | 30° C | 43% | 1026.7 hPa | 0 mm | - | - | - |
| 1788390016 | 30° C | 41% | 1026.5 hPa | 0 mm | - | - | - |
| 1788389416 | 30.56° C | 42% | 1026.8 hPa | 0 mm | - | - | - |
| 1788388816 | 31.11° C | 40% | 1026.7 hPa | 0 mm | - | - | - |
| 1788388216 | 31.11° C | 41% | 1027.1 hPa | 0 mm | - | - | - |
| 1788387616 | 31.67° C | 36% | 1027 hPa | 0 mm | - | - | - |
| 1788387016 | 32.22° C | 40% | 1027.1 hPa | 0 mm | - | - | - |
| 1788386416 | 32.22° C | 40% | 1027.6 hPa | 0 mm | - | - | - |
| 1788385816 | 32.22° C | 38% | 1027.7 hPa | 0 mm | - | - | - |
| 1788385215 | 32.22° C | 37% | 1027.7 hPa | 0 mm | - | - | - |
| 1788384615 | 33.33° C | 34% | 1028 hPa | 0 mm | - | - | - |
| 1788384015 | 32.78° C | 32% | 1027.8 hPa | 0 mm | - | - | - |
| 1788383415 | 32.22° C | 37% | 1027.9 hPa | 0 mm | - | - | - |
| 1788382815 | 32.22° C | 40% | 1028.2 hPa | 0 mm | - | - | - |
| 1788382215 | 32.22° C | 41% | 1028.2 hPa | 0 mm | - | - | - |
| 1788381615 | 31.67° C | 40% | 1028.4 hPa | 0 mm | - | - | - |
| 1788381017 | 31.67° C | 40% | 1028.6 hPa | 0 mm | - | - | - |
| 1788380415 | 32.78° C | 36% | 1028.7 hPa | 0 mm | - | - | - |
* Rain latest hour (hover to see other rain measurements)
** Current wind speed in m/s (hover to see current wind gust speed)